createdAt,value
2018-03-04T00:00:30.829Z,100047.81
2018-03-04T00:03:00.156Z,100043.81
2018-03-04T00:05:29.681Z,100037.77
2018-03-04T00:07:59.065Z,100020.88
2018-03-04T00:10:28.239Z,99996.67
2018-03-04T00:12:57.624Z,99958.80
2018-03-04T00:15:26.968Z,99946.48
2018-03-04T00:17:56.073Z,99946.24
2018-03-04T00:20:25.242Z,99959.55
2018-03-04T00:22:54.675Z,99954.56
2018-03-04T00:25:23.901Z,99959.88
2018-03-04T00:27:53.126Z,99970.19
2018-03-04T00:30:22.375Z,99986.45
2018-03-04T00:32:51.665Z,99973.72
2018-03-04T00:35:20.768Z,99970.77
2018-03-04T00:37:49.838Z,99969.63
2018-03-04T00:40:19.261Z,99960.88
2018-03-04T00:42:48.818Z,99946.57
2018-03-04T00:45:18.167Z,99952.06
2018-03-04T00:47:47.468Z,99956.09
2018-03-04T00:50:16.787Z,99928.56
2018-03-04T00:52:46.170Z,99914.86
2018-03-04T00:55:15.482Z,99922.98
2018-03-04T00:57:45.018Z,99914.72
2018-03-04T01:00:14.217Z,99911.36
2018-03-04T01:02:43.581Z,99901.84
2018-03-04T01:05:12.938Z,99902.25
2018-03-04T01:07:42.290Z,99913.38
2018-03-04T01:10:11.878Z,99915.67
2018-03-04T01:12:40.829Z,99909.50
2018-03-04T01:15:09.924Z,99910.28
2018-03-04T01:17:39.390Z,99908.23
2018-03-04T01:20:08.845Z,99904.84
2018-03-04T01:22:38.285Z,99896.22
2018-03-04T01:25:07.485Z,99891.36
2018-03-04T01:27:36.735Z,99891.45
2018-03-04T01:30:06.308Z,99891.22
2018-03-04T01:32:35.829Z,99893.36
2018-03-04T01:35:04.997Z,99877.35
2018-03-04T01:37:34.399Z,99879.07
2018-03-04T01:40:03.506Z,99885.70
2018-03-04T01:42:32.874Z,99877.75
2018-03-04T01:45:02.208Z,99877.67
2018-03-04T01:47:31.472Z,99882.62
2018-03-04T01:50:00.602Z,99877.00
2018-03-04T01:52:29.730Z,99868.80
2018-03-04T01:54:59.103Z,99861.48
2018-03-04T01:57:28.402Z,99866.42
2018-03-04T01:59:57.833Z,99874.11
2018-03-04T02:02:27.110Z,99875.06
2018-03-04T02:04:56.293Z,99868.48
2018-03-04T02:07:25.738Z,99857.69
2018-03-04T02:09:54.664Z,99859.98
2018-03-04T02:12:23.691Z,99866.67
2018-03-04T02:14:53.129Z,99867.03
2018-03-04T02:17:22.489Z,99864.64
2018-03-04T02:19:51.775Z,99851.59
2018-03-04T02:22:21.165Z,99846.50
2018-03-04T02:24:50.328Z,99843.47
2018-03-04T02:27:19.401Z,99835.36
2018-03-04T02:29:48.558Z,99834.99
2018-03-04T02:32:17.843Z,99828.91
2018-03-04T02:34:47.331Z,99840.97
2018-03-04T02:37:16.581Z,99841.98
2018-03-04T02:39:45.931Z,99825.06
2018-03-04T02:42:15.086Z,99826.30
2018-03-04T02:44:44.295Z,99829.59
2018-03-04T02:47:13.638Z,99826.89
2018-03-04T02:49:42.889Z,99829.50
2018-03-04T02:52:11.984Z,99842.64
2018-03-04T02:54:41.591Z,99846.52
2018-03-04T02:57:11.399Z,99845.95
2018-03-04T02:59:40.455Z,99839.16
2018-03-04T03:02:09.647Z,99835.81
2018-03-04T03:04:38.907Z,99845.42
2018-03-04T03:07:08.035Z,99847.17
2018-03-04T03:09:37.593Z,99843.47
2018-03-04T03:12:07.011Z,99836.55
2018-03-04T03:14:36.281Z,99845.27
2018-03-04T03:17:05.817Z,99834.35
2018-03-04T03:19:35.105Z,99843.45
2018-03-04T03:22:04.519Z,99839.49
2018-03-04T03:24:33.817Z,99834.61
2018-03-04T03:27:03.009Z,99837.35
2018-03-04T03:29:32.230Z,99835.92
2018-03-04T03:32:01.421Z,99831.17
2018-03-04T03:34:30.704Z,99834.90
2018-03-04T03:37:00.209Z,99838.28
2018-03-04T03:39:29.336Z,99839.17
2018-03-04T03:41:58.605Z,99841.84
2018-03-04T03:44:27.802Z,99842.47
2018-03-04T03:46:57.205Z,99853.19
2018-03-04T03:49:26.505Z,99843.48
2018-03-04T03:51:55.809Z,99846.51
2018-03-04T03:54:25.111Z,99848.53
2018-03-04T03:56:54.523Z,99853.65
2018-03-04T03:59:23.971Z,99857.67
2018-03-04T04:01:53.185Z,99852.22
2018-03-04T04:04:22.522Z,99860.25
2018-03-04T04:06:51.817Z,99857.76
2018-03-04T04:09:20.818Z,99852.12
2018-03-04T04:11:50.241Z,99854.75
2018-03-04T04:14:19.418Z,99840.22
2018-03-04T04:16:48.812Z,99846.16
2018-03-04T04:19:18.178Z,99849.45
2018-03-04T04:21:47.251Z,99845.14
2018-03-04T04:24:16.671Z,99840.02
2018-03-04T04:26:46.113Z,99836.23
2018-03-04T04:29:15.315Z,99840.28
2018-03-04T04:31:44.421Z,99838.18
2018-03-04T04:34:13.609Z,99826.39
2018-03-04T04:36:43.120Z,99828.92
2018-03-04T04:39:12.354Z,99832.47
2018-03-04T04:41:41.496Z,99835.84
2018-03-04T04:44:10.922Z,99840.20
2018-03-04T04:46:40.327Z,99838.66
2018-03-04T04:49:09.312Z,99831.61
2018-03-04T04:51:38.609Z,99846.13
2018-03-04T04:54:08.446Z,99854.05
2018-03-04T04:56:37.405Z,99843.31
2018-03-04T04:59:06.637Z,99856.22
2018-03-04T05:01:35.769Z,99856.69
2018-03-04T05:04:05.097Z,99866.58
2018-03-04T05:06:34.433Z,99870.38
2018-03-04T05:09:03.520Z,99870.16
2018-03-04T05:11:32.645Z,99877.33
2018-03-04T05:14:01.839Z,99882.84
2018-03-04T05:16:31.230Z,99895.16
2018-03-04T05:19:00.162Z,99890.45
2018-03-04T05:21:29.503Z,99897.77
2018-03-04T05:23:58.759Z,99892.59
2018-03-04T05:26:27.797Z,99905.91
2018-03-04T05:28:57.138Z,99908.04
2018-03-04T05:31:26.403Z,99896.38
2018-03-04T05:33:55.697Z,99914.95
2018-03-04T05:36:24.945Z,99926.09
2018-03-04T05:38:54.415Z,99930.11
2018-03-04T05:41:23.701Z,99936.67
2018-03-04T05:43:52.757Z,99939.34
2018-03-04T05:46:22.305Z,99945.25
2018-03-04T05:48:51.705Z,99942.08
2018-03-04T05:51:20.849Z,99949.64
2018-03-04T05:53:51.153Z,99949.48
2018-03-04T05:56:20.649Z,99951.39
2018-03-04T05:58:50.095Z,99965.72
2018-03-04T06:01:19.336Z,99959.62
2018-03-04T06:03:48.346Z,99963.82
2018-03-04T06:06:17.551Z,99967.34
2018-03-04T06:08:46.998Z,99965.20
2018-03-04T06:11:16.288Z,99954.64
2018-03-04T06:13:45.529Z,99959.16
2018-03-04T06:16:15.052Z,99961.27
2018-03-04T06:18:44.134Z,99951.33
2018-03-04T06:21:13.483Z,99949.27
2018-03-04T06:23:42.631Z,99953.41
2018-03-04T06:26:11.830Z,99953.42
2018-03-04T06:28:41.182Z,99954.91
2018-03-04T06:31:10.342Z,99944.31
2018-03-04T06:33:39.297Z,99945.75
2018-03-04T06:36:08.654Z,99966.61
2018-03-04T06:38:37.866Z,99964.52
2018-03-04T06:41:07.201Z,99976.51
2018-03-04T06:43:36.661Z,99984.65
2018-03-04T06:46:05.936Z,99984.70
2018-03-04T06:48:35.127Z,99986.37
2018-03-04T06:51:04.265Z,99990.94
2018-03-04T06:53:33.625Z,99996.80
2018-03-04T06:56:02.925Z,100003.12
2018-03-04T06:58:32.157Z,100010.94
2018-03-04T07:01:01.238Z,100001.95
2018-03-04T07:03:30.210Z,100009.17
2018-03-04T07:05:59.267Z,100003.37
2018-03-04T07:08:28.583Z,99995.95
2018-03-04T07:10:57.716Z,100000.91
2018-03-04T07:13:27.302Z,100000.49
2018-03-04T07:15:56.716Z,100006.53
2018-03-04T07:18:26.942Z,100007.53
2018-03-04T07:20:56.260Z,100014.59
2018-03-04T07:23:25.653Z,100035.83
2018-03-04T07:25:55.031Z,100031.58
2018-03-04T07:28:24.600Z,100046.33
2018-03-04T07:30:53.561Z,100050.55
2018-03-04T07:33:22.574Z,100047.30
2018-03-04T07:35:52.034Z,100055.53
2018-03-04T07:38:21.456Z,100067.92
2018-03-04T07:40:50.845Z,100076.27
2018-03-04T07:43:20.340Z,100083.59
2018-03-04T07:45:49.766Z,100082.25
2018-03-04T07:48:18.845Z,100094.05
2018-03-04T07:50:48.147Z,100100.58
2018-03-04T07:53:17.137Z,100107.58
2018-03-04T07:55:46.086Z,100112.01
2018-03-04T07:58:15.329Z,100117.25
2018-03-04T08:00:44.435Z,100126.52
2018-03-04T08:03:13.634Z,100121.89
2018-03-04T08:05:42.817Z,100130.75
2018-03-04T08:08:12.061Z,100133.77
2018-03-04T08:10:41.157Z,100127.30
2018-03-04T08:13:10.285Z,100121.98
2018-03-04T08:15:39.545Z,100130.05
2018-03-04T08:18:08.622Z,100130.80
2018-03-04T08:20:37.599Z,100140.79
2018-03-04T08:23:06.857Z,100162.94
2018-03-04T08:25:36.205Z,100167.59
2018-03-04T08:28:16.550Z,100169.13
2018-03-04T08:30:45.579Z,100176.98
2018-03-04T08:33:14.778Z,100181.50
2018-03-04T08:35:43.935Z,100191.34
2018-03-04T08:38:13.138Z,100204.12
2018-03-04T08:40:42.304Z,100209.89
2018-03-04T08:43:11.411Z,100207.59
2018-03-04T08:45:40.763Z,100215.02
2018-03-04T08:48:09.939Z,100209.23
2018-03-04T08:50:39.041Z,100214.47
2018-03-04T08:53:08.055Z,100217.79
2018-03-04T08:55:37.323Z,100230.80
2018-03-04T08:58:06.276Z,100228.05
2018-03-04T09:00:35.351Z,100243.20
2018-03-04T09:03:04.825Z,100241.06
2018-03-04T09:05:33.977Z,100258.34
2018-03-04T09:08:02.941Z,100267.73
2018-03-04T09:10:32.105Z,100268.09
2018-03-04T09:13:01.160Z,100266.23
2018-03-04T09:15:30.392Z,100285.50
2018-03-04T09:17:59.415Z,100288.77
2018-03-04T09:20:28.445Z,100296.61
2018-03-04T09:22:57.724Z,100297.13
2018-03-04T09:25:26.697Z,100293.47
2018-03-04T09:27:55.703Z,100300.03
2018-03-04T09:30:25.134Z,100294.86
2018-03-04T09:32:54.685Z,100305.08
2018-03-04T09:35:24.202Z,100309.55
2018-03-04T09:37:53.168Z,100317.54
2018-03-04T09:40:22.390Z,100318.70
2018-03-04T09:42:51.745Z,100321.02
2018-03-04T09:45:20.862Z,100335.87
2018-03-04T09:47:49.785Z,100342.42
2018-03-04T09:50:19.058Z,100342.59
2018-03-04T09:52:48.225Z,100353.41
2018-03-04T09:55:17.465Z,100350.83
2018-03-04T09:57:46.675Z,100350.59
2018-03-04T10:00:15.611Z,100360.80
2018-03-04T10:02:44.728Z,100369.05
2018-03-04T10:05:13.961Z,100372.78
2018-03-04T10:07:43.055Z,100378.22
2018-03-04T10:10:12.181Z,100382.24
2018-03-04T10:12:41.545Z,100394.81
2018-03-04T10:15:10.493Z,100398.46
2018-03-04T10:17:39.772Z,100387.02
2018-03-04T10:20:08.994Z,100399.98
2018-03-04T10:22:38.266Z,100401.50
2018-03-04T10:25:07.717Z,100407.76
2018-03-04T10:27:36.976Z,100409.11
2018-03-04T10:30:06.138Z,100411.27
2018-03-04T10:32:35.289Z,100419.23
2018-03-04T10:35:04.541Z,100416.31
2018-03-04T10:37:33.822Z,100428.70
2018-03-04T10:40:03.150Z,100430.14
2018-03-04T10:42:32.508Z,100437.98
2018-03-04T10:45:01.707Z,100438.52
2018-03-04T10:47:30.924Z,100437.67
2018-03-04T10:50:00.137Z,100431.88
2018-03-04T10:52:30.098Z,100434.11
2018-03-04T10:54:59.187Z,100437.33
2018-03-04T10:57:28.498Z,100421.34
2018-03-04T10:59:57.545Z,100436.29
2018-03-04T11:02:32.639Z,100443.29
2018-03-04T11:05:01.857Z,100446.80
2018-03-04T11:07:30.846Z,100445.39
2018-03-04T11:09:59.968Z,100449.81
2018-03-04T11:12:29.093Z,100454.32
2018-03-04T11:14:58.178Z,100455.67
2018-03-04T11:17:27.340Z,100463.47
2018-03-04T11:19:56.703Z,100470.91
2018-03-04T11:22:26.063Z,100480.20
2018-03-04T11:24:55.091Z,100479.33
2018-03-04T11:27:24.071Z,100477.91
2018-03-04T11:29:53.307Z,100486.16
2018-03-04T11:32:22.451Z,100488.20
2018-03-04T11:34:51.541Z,100481.71
2018-03-04T11:37:20.606Z,100487.47
2018-03-04T11:39:49.782Z,100497.06
2018-03-04T11:42:19.087Z,100502.13
2018-03-04T11:44:48.165Z,100516.55
2018-03-04T11:47:17.321Z,100514.78
2018-03-04T11:49:46.269Z,100531.90
2018-03-04T11:52:15.377Z,100525.34
2018-03-04T11:54:44.749Z,100536.03
2018-03-04T11:57:13.802Z,100526.27
2018-03-04T11:59:43.363Z,100535.44
2018-03-04T12:02:12.360Z,100539.56
2018-03-04T12:04:41.471Z,100543.62
2018-03-04T12:07:10.814Z,100539.00
2018-03-04T12:09:40.113Z,100541.19
2018-03-04T12:12:09.411Z,100547.77
2018-03-04T12:14:38.607Z,100552.59
2018-03-04T12:17:07.517Z,100542.05
2018-03-04T12:19:36.869Z,100547.74
2018-03-04T12:22:06.009Z,100557.23
2018-03-04T12:24:35.103Z,100547.46
2018-03-04T12:27:04.132Z,100549.66
2018-03-04T12:29:33.145Z,100553.27
2018-03-04T12:32:02.365Z,100559.63
2018-03-04T12:34:31.482Z,100557.84
2018-03-04T12:37:00.670Z,100562.73
2018-03-04T12:39:29.786Z,100573.97
2018-03-04T12:41:58.812Z,100566.56
2018-03-04T12:44:27.901Z,100559.23
2018-03-04T12:46:56.882Z,100556.36
2018-03-04T12:49:25.994Z,100567.64
2018-03-04T12:51:55.240Z,100568.08
2018-03-04T12:54:24.451Z,100581.14
2018-03-04T12:56:53.797Z,100580.77
2018-03-04T12:59:23.654Z,100564.11
2018-03-04T13:01:52.990Z,100561.48
2018-03-04T13:04:22.973Z,100576.57
2018-03-04T13:06:53.143Z,100582.75
2018-03-04T13:09:22.670Z,100584.97
2018-03-04T13:11:52.109Z,100594.44
2018-03-04T13:14:21.359Z,100602.69
2018-03-04T13:16:50.393Z,100591.98
2018-03-04T13:19:19.593Z,100604.00
2018-03-04T13:21:48.925Z,100609.09
2018-03-04T13:24:18.425Z,100613.17
2018-03-04T13:26:47.711Z,100626.60
2018-03-04T13:29:17.267Z,100636.55
2018-03-04T13:31:46.605Z,100631.05
2018-03-04T13:34:15.819Z,100629.21
2018-03-04T13:36:45.119Z,100629.03
2018-03-04T13:39:14.523Z,100628.17
2018-03-04T13:41:44.057Z,100634.36
2018-03-04T13:44:13.157Z,100636.58
2018-03-04T13:46:42.530Z,100637.37
2018-03-04T13:49:12.070Z,100631.42
2018-03-04T13:51:41.277Z,100640.13
2018-03-04T13:54:10.431Z,100635.88
2018-03-04T13:56:39.683Z,100641.28
2018-03-04T13:59:08.598Z,100636.49
2018-03-04T14:01:37.918Z,100639.35
2018-03-04T14:04:07.456Z,100635.23
2018-03-04T14:06:36.550Z,100644.54
2018-03-04T14:09:05.800Z,100643.84
2018-03-04T14:11:35.129Z,100657.98
2018-03-04T14:14:04.159Z,100652.48
2018-03-04T14:16:33.677Z,100659.66
2018-03-04T14:19:02.846Z,100673.47
2018-03-04T14:21:31.847Z,100678.95
2018-03-04T14:24:01.201Z,100681.58
2018-03-04T14:26:30.401Z,100687.41
2018-03-04T14:28:59.810Z,100688.27
2018-03-04T14:31:29.205Z,100691.15
2018-03-04T14:33:58.353Z,100695.92
2018-03-04T14:36:27.673Z,100702.28
2018-03-04T14:38:57.210Z,100707.49
2018-03-04T14:41:26.508Z,100714.36
2018-03-04T14:43:55.627Z,100721.27
2018-03-04T14:46:24.702Z,100731.94
2018-03-04T14:48:53.755Z,100740.04
2018-03-04T14:51:22.965Z,100744.53
2018-03-04T14:53:52.049Z,100747.39
2018-03-04T14:56:21.410Z,100751.20
2018-03-04T14:58:50.615Z,100746.81
2018-03-04T15:01:20.070Z,100748.44
2018-03-04T15:03:49.149Z,100750.13
2018-03-04T15:06:18.559Z,100758.36
2018-03-04T15:08:47.657Z,100757.55
2018-03-04T15:11:16.853Z,100762.41
2018-03-04T15:13:46.029Z,100761.08
2018-03-04T15:16:15.157Z,100755.09
2018-03-04T15:18:44.297Z,100753.53
2018-03-04T15:21:13.466Z,100756.06
2018-03-04T15:23:43.095Z,100759.00
2018-03-04T15:26:12.195Z,100761.20
2018-03-04T15:28:41.273Z,100765.38
2018-03-04T15:31:10.483Z,100766.22
2018-03-04T15:33:39.886Z,100761.86
2018-03-04T15:36:10.159Z,100765.30
2018-03-04T15:38:39.285Z,100765.41
2018-03-04T15:41:08.429Z,100774.48
2018-03-04T15:43:37.750Z,100774.75
2018-03-04T15:46:06.962Z,100776.20
2018-03-04T15:48:36.146Z,100785.64
2018-03-04T15:51:05.405Z,100791.09
2018-03-04T15:53:34.502Z,100803.55
2018-03-04T15:56:03.585Z,100807.47
2018-03-04T15:58:33.045Z,100803.62
2018-03-04T16:01:02.141Z,100813.77
2018-03-04T16:03:31.157Z,100828.59
2018-03-04T16:06:00.384Z,100849.73
2018-03-04T16:08:29.838Z,100858.97
2018-03-04T16:10:59.341Z,100861.43
2018-03-04T16:13:28.479Z,100858.75
2018-03-04T16:15:57.402Z,100867.51
2018-03-04T16:18:26.327Z,100882.09
2018-03-04T16:20:55.643Z,100894.63
2018-03-04T16:23:25.065Z,100900.75
2018-03-04T16:25:54.133Z,100895.70
2018-03-04T16:28:23.130Z,100891.07
2018-03-04T16:30:52.350Z,100903.81
2018-03-04T16:33:21.557Z,100906.45
2018-03-04T16:35:50.812Z,100911.00
2018-03-04T16:38:19.817Z,100914.38
2018-03-04T16:40:49.243Z,100920.50
2018-03-04T16:43:18.380Z,100920.53
2018-03-04T16:45:47.469Z,100921.16
2018-03-04T16:48:16.688Z,100923.68
2018-03-04T16:50:45.646Z,100930.06
2018-03-04T16:53:14.913Z,100944.03
2018-03-04T16:55:44.077Z,100935.84
2018-03-04T16:58:13.477Z,100936.41
2018-03-04T17:00:42.873Z,100938.70
2018-03-04T17:03:11.961Z,100943.42
2018-03-04T17:05:41.091Z,100944.85
2018-03-04T17:08:10.617Z,100946.74
2018-03-04T17:10:39.589Z,100952.56
2018-03-04T17:13:08.877Z,100959.28
2018-03-04T17:15:38.186Z,100954.63
2018-03-04T17:18:07.535Z,100949.40
2018-03-04T17:20:37.337Z,100950.89
2018-03-04T17:23:06.563Z,100942.56
2018-03-04T17:25:35.518Z,100934.56
2018-03-04T17:28:04.673Z,100938.14
2018-03-04T17:30:33.834Z,100946.73
2018-03-04T17:33:03.210Z,100943.77
2018-03-04T17:35:32.390Z,100932.45
2018-03-04T17:38:01.651Z,100939.61
2018-03-04T17:40:30.867Z,100943.77
2018-03-04T17:43:00.173Z,100953.58
2018-03-04T17:45:29.472Z,100961.83
2018-03-04T17:47:58.683Z,100966.17
2018-03-04T17:50:27.934Z,100981.84
2018-03-04T17:52:57.148Z,100987.10
2018-03-04T17:55:26.213Z,100986.45
2018-03-04T17:57:55.303Z,100985.01
2018-03-04T18:00:24.413Z,100974.52
2018-03-04T18:02:53.506Z,100974.86
2018-03-04T18:05:23.029Z,100974.55
2018-03-04T18:07:52.173Z,100972.62
2018-03-04T18:10:21.585Z,100969.44
2018-03-04T18:12:50.805Z,100962.98
2018-03-04T18:15:20.066Z,100950.38
2018-03-04T18:17:49.145Z,100950.05
2018-03-04T18:20:18.311Z,100950.50
2018-03-04T18:22:47.372Z,100955.40
2018-03-04T18:25:16.697Z,100961.43
2018-03-04T18:27:45.906Z,100970.66
2018-03-04T18:30:15.194Z,100981.86
2018-03-04T18:32:44.711Z,101001.22
2018-03-04T18:35:14.407Z,101004.69
2018-03-04T18:37:43.931Z,101008.02
2018-03-04T18:40:13.215Z,101026.24
2018-03-04T18:42:42.427Z,101007.84
2018-03-04T18:45:11.814Z,101009.66
2018-03-04T18:47:40.910Z,101007.42
2018-03-04T18:50:10.487Z,101006.33
2018-03-04T18:52:40.126Z,101017.70
2018-03-04T18:55:09.327Z,101024.16
2018-03-04T18:57:38.933Z,101020.90
2018-03-04T19:00:08.193Z,101013.63
2018-03-04T19:02:37.225Z,101030.67
2018-03-04T19:05:06.846Z,101037.97
2018-03-04T19:07:36.337Z,101037.02
2018-03-04T19:10:06.010Z,101033.06
2018-03-04T19:12:35.106Z,101036.96
2018-03-04T19:15:04.197Z,101033.11
2018-03-04T19:17:33.265Z,101024.69
2018-03-04T19:20:02.895Z,101032.41
2018-03-04T19:22:32.003Z,101073.55
2018-03-04T19:25:01.401Z,101071.83
2018-03-04T19:27:30.745Z,101084.94
2018-03-04T19:30:00.118Z,101082.95
2018-03-04T19:32:29.045Z,101071.31
2018-03-04T19:34:58.319Z,101057.11
2018-03-04T19:37:27.537Z,101045.21
2018-03-04T19:39:56.851Z,101036.62
2018-03-04T19:42:26.153Z,101035.64
2018-03-04T19:44:55.395Z,101041.63
2018-03-04T19:47:24.769Z,101041.89
2018-03-04T19:49:54.154Z,101039.37
2018-03-04T19:52:23.546Z,101041.05
2018-03-04T19:54:52.822Z,101051.48
2018-03-04T19:57:22.059Z,101055.83
2018-03-04T19:59:51.553Z,101073.86
2018-03-04T20:02:20.495Z,101070.80
2018-03-04T20:04:49.691Z,101078.84
2018-03-04T20:07:18.853Z,101084.77
2018-03-04T20:09:48.073Z,101095.48
2018-03-04T20:12:18.353Z,101114.53
2018-03-04T20:14:47.354Z,101110.03
2018-03-04T20:17:16.725Z,101123.27
2018-03-04T20:19:46.258Z,101111.09
2018-03-04T20:22:15.375Z,101109.58
2018-03-04T20:24:44.553Z,101097.56
2018-03-04T20:27:14.070Z,101087.02
2018-03-04T20:29:43.297Z,101088.18
2018-03-04T20:32:12.557Z,101118.29
2018-03-04T20:34:41.753Z,101116.52
2018-03-04T20:37:11.156Z,101082.84
2018-03-04T20:39:40.589Z,101074.94
2018-03-04T20:42:09.801Z,101087.92
2018-03-04T20:44:39.469Z,101089.94
2018-03-04T20:47:08.873Z,101100.77
2018-03-04T20:49:38.273Z,101115.11
2018-03-04T20:52:07.377Z,101141.31
2018-03-04T20:54:36.579Z,101148.28
2018-03-04T20:57:05.725Z,101148.89
2018-03-04T20:59:34.993Z,101146.63
2018-03-04T21:02:04.475Z,101156.60
2018-03-04T21:04:34.458Z,101168.65
2018-03-04T21:07:04.048Z,101152.80
2018-03-04T21:09:33.248Z,101152.45
2018-03-04T21:12:02.187Z,101154.80
2018-03-04T21:14:31.162Z,101148.38
2018-03-04T21:17:00.503Z,101141.77
2018-03-04T21:19:29.673Z,101138.87
2018-03-04T21:21:58.874Z,101148.42
2018-03-04T21:24:28.127Z,101151.15
2018-03-04T21:26:57.227Z,101150.83
2018-03-04T21:29:26.502Z,101142.03
2018-03-04T21:31:56.047Z,101141.29
2018-03-04T21:34:25.381Z,101143.26
2018-03-04T21:36:54.861Z,101143.45
2018-03-04T21:39:24.180Z,101140.81
2018-03-04T21:41:53.255Z,101137.38
2018-03-04T21:44:22.791Z,101130.82
2018-03-04T21:46:51.878Z,101143.23
2018-03-04T21:49:21.073Z,101139.52
2018-03-04T21:51:50.293Z,101140.30
2018-03-04T21:54:19.613Z,101139.85
2018-03-04T21:56:48.678Z,101133.67
2018-03-04T21:59:17.930Z,101134.27
2018-03-04T22:01:47.213Z,101137.18
2018-03-04T22:04:16.005Z,101133.30
2018-03-04T22:06:45.201Z,101134.03
2018-03-04T22:09:14.094Z,101137.72
2018-03-04T22:11:43.084Z,101138.00
2018-03-04T22:14:11.793Z,101140.61
2018-03-04T22:16:40.821Z,101143.07
2018-03-04T22:19:10.183Z,101149.66
2018-03-04T22:21:39.226Z,101155.99
2018-03-04T22:24:08.413Z,101166.45
2018-03-04T22:26:37.975Z,101161.48
2018-03-04T22:29:07.135Z,101155.96
2018-03-04T22:31:36.446Z,101150.98
2018-03-04T22:34:05.721Z,101154.59
2018-03-04T22:36:34.984Z,101149.98
2018-03-04T22:39:04.591Z,101150.86
2018-03-04T22:41:33.929Z,101147.11
2018-03-04T22:44:03.646Z,101156.31
2018-03-04T22:46:32.949Z,101155.79
2018-03-04T22:49:01.829Z,101141.81
2018-03-04T22:51:30.827Z,101149.92
2018-03-04T22:54:00.328Z,101153.33
2018-03-04T22:56:30.349Z,101155.34
2018-03-04T22:59:00.385Z,101165.34
2018-03-04T23:01:29.803Z,101177.17
2018-03-04T23:03:59.385Z,101182.74
2018-03-04T23:06:28.588Z,101193.97
2018-03-04T23:08:58.083Z,101192.22
2018-03-04T23:11:27.380Z,101203.16
2018-03-04T23:13:56.587Z,101198.25
2018-03-04T23:16:25.497Z,101199.08
2018-03-04T23:18:54.666Z,101198.14
2018-03-04T23:21:23.768Z,101194.02
2018-03-04T23:23:52.706Z,101188.81
2018-03-04T23:26:21.655Z,101198.41
2018-03-04T23:28:50.637Z,101200.20
2018-03-04T23:31:19.539Z,101202.70
2018-03-04T23:33:48.793Z,101208.92
2018-03-04T23:36:17.588Z,101215.73
2018-03-04T23:38:46.519Z,101216.61
2018-03-04T23:41:15.956Z,101215.92
2018-03-04T23:43:44.814Z,101222.97
2018-03-04T23:46:13.962Z,101222.39
2018-03-04T23:48:43.096Z,101215.81
2018-03-04T23:51:12.714Z,101203.17
2018-03-04T23:53:41.736Z,101196.67
2018-03-04T23:56:11.205Z,101201.62
2018-03-04T23:58:40.251Z,101198.78
